Time;durP1;ratioP1;P1;durP2;ratioP2;P2;SDS_P1;SDS_P2;PMS_P1;PMS_P2;Temp;Humidity;BMP_temperature;BMP_pressure;BME280_temperature;BME280_humidity;BME280_pressure;Samples;Min_cycle;Max_cycle;Signal;HPM_P1;HPM_P2
2022/08/09 00:00:10;;;;;;;5.75;3.75;;;16.40;99.90;;;;;;5010637;28;20128;-45
2022/08/09 00:02:36;;;;;;;6.32;3.67;;;16.50;99.90;;;;;;5010492;28;20033;-45
2022/08/09 00:05:03;;;;;;;5.45;3.67;;;16.40;99.90;;;;;;5003356;28;20041;-46
2022/08/09 00:07:29;;;;;;;6.45;3.60;;;16.40;99.90;;;;;;5004580;28;20092;-44
2022/08/09 00:09:55;;;;;;;9.23;4.18;;;16.40;99.90;;;;;;4992334;28;20430;-45
2022/08/09 00:12:21;;;;;;;9.55;4.15;;;16.30;99.90;;;;;;4991346;28;20034;-46
2022/08/09 00:14:46;;;;;;;6.00;4.20;;;16.30;99.90;;;;;;4991167;28;20046;-45
2022/08/09 00:17:12;;;;;;;6.78;4.30;;;16.30;99.90;;;;;;4991083;28;20497;-45
2022/08/09 00:19:38;;;;;;;6.90;4.07;;;16.30;99.90;;;;;;4982714;28;20611;-46
2022/08/09 00:22:04;;;;;;;8.75;4.35;;;16.30;99.90;;;;;;5010813;28;20049;-48
2022/08/09 00:24:30;;;;;;;7.90;4.40;;;16.30;99.90;;;;;;5008518;28;20050;-44
2022/08/09 00:26:57;;;;;;;5.78;4.38;;;16.30;99.90;;;;;;4991139;28;20164;-45
2022/08/09 00:29:22;;;;;;;6.30;4.50;;;16.20;99.90;;;;;;5009589;28;20129;-45
2022/08/09 00:31:48;;;;;;;7.80;4.25;;;16.20;99.90;;;;;;5010287;28;20502;-47
2022/08/09 00:34:14;;;;;;;6.85;4.70;;;16.20;99.90;;;;;;4997972;28;20042;-47
2022/08/09 00:36:40;;;;;;;7.47;4.45;;;16.20;99.90;;;;;;4994219;28;20042;-44
2022/08/09 00:39:07;;;;;;;5.65;4.32;;;16.10;99.90;;;;;;4995044;28;20054;-46
2022/08/09 00:41:33;;;;;;;7.72;4.45;;;16.10;99.90;;;;;;5013057;28;20108;-46
2022/08/09 00:43:59;;;;;;;6.82;4.80;;;16.10;99.90;;;;;;4999489;28;20046;-44
2022/08/09 00:46:24;;;;;;;9.18;5.15;;;16.00;99.90;;;;;;4994314;28;20030;-46
2022/08/09 00:48:50;;;;;;;6.97;4.70;;;16.00;99.90;;;;;;4994713;28;20034;-45
2022/08/09 00:51:16;;;;;;;8.30;5.13;;;16.10;99.90;;;;;;4994615;28;20114;-46
2022/08/09 00:53:46;;;;;;;9.65;5.13;;;16.00;99.90;;;;;;5012611;28;20041;-44
2022/08/09 00:56:13;;;;;;;8.25;4.95;;;16.00;99.90;;;;;;5002521;28;20093;-48
2022/08/09 00:58:39;;;;;;;5.85;4.85;;;15.90;99.90;;;;;;4995931;28;20044;-44
2022/08/09 01:01:28;;;;;;;8.15;5.30;;;15.90;99.90;;;;;;4993743;28;20038;-44
2022/08/09 01:04:26;;;;;;;7.07;4.70;;;16.00;99.90;;;;;;5013739;28;20108;-46
2022/08/09 01:07:20;;;;;;;8.63;5.70;;;15.90;99.90;;;;;;5005821;28;20038;-46
2022/08/09 01:10:03;;;;;;;7.97;5.00;;;15.90;99.90;;;;;;4992103;28;20100;-45
2022/08/09 01:12:38;;;;;;;8.48;4.93;;;15.80;99.90;;;;;;4994207;28;20048;-46
2022/08/09 01:15:07;;;;;;;8.85;5.28;;;15.80;99.90;;;;;;5013231;28;20096;-44
2022/08/09 01:17:48;;;;;;;9.40;5.55;;;15.80;99.90;;;;;;5013800;28;20049;-44
2022/08/09 01:20:32;;;;;;;7.68;5.32;;;15.80;99.90;;;;;;5012593;28;20385;-44
2022/08/09 01:23:39;;;;;;;7.57;5.90;;;15.70;99.90;;;;;;4994240;28;20092;-45
2022/08/09 01:26:19;;;;;;;8.52;5.65;;;15.70;99.90;;;;;;5012413;28;20038;-47
2022/08/09 01:28:52;;;;;;;7.57;5.80;;;15.70;99.90;;;;;;5013512;28;20069;-43
2022/08/09 01:31:21;;;;;;;9.20;5.85;;;15.70;99.90;;;;;;5013143;28;20045;-43
2022/08/09 01:33:48;;;;;;;9.27;5.82;;;15.70;99.90;;;;;;5011858;28;20046;-44
2022/08/09 01:36:18;;;;;;;11.00;6.50;;;15.60;99.90;;;;;;5013323;28;20430;-44
2022/08/09 01:38:46;;;;;;;8.70;6.15;;;15.70;99.90;;;;;;4996028;28;20389;-44
2022/08/09 01:41:19;;;;;;;10.60;6.00;;;15.50;99.90;;;;;;5011868;28;20049;-43
2022/08/09 01:43:48;;;;;;;10.05;5.78;;;15.50;99.90;;;;;;5000948;28;20452;-45
2022/08/09 01:46:16;;;;;;;7.82;5.85;;;15.40;99.90;;;;;;5007103;28;20038;-46
2022/08/09 01:48:44;;;;;;;11.60;6.80;;;15.50;99.90;;;;;;5012083;28;20042;-44
2022/08/09 01:51:12;;;;;;;7.75;6.20;;;15.40;99.90;;;;;;5005875;28;20038;-44
2022/08/09 01:53:40;;;;;;;10.40;6.70;;;15.30;99.90;;;;;;4993515;28;20038;-46
2022/08/09 01:56:08;;;;;;;8.45;6.70;;;15.40;99.90;;;;;;5006090;28;20034;-45
2022/08/09 01:58:35;;;;;;;9.35;6.53;;;15.40;99.90;;;;;;5012657;28;20037;-46
2022/08/09 02:01:02;;;;;;;9.40;6.50;;;15.30;99.90;;;;;;5004953;28;20054;-45
2022/08/09 02:03:32;;;;;;;8.60;6.78;;;15.30;99.90;;;;;;4993133;28;20034;-43
2022/08/09 02:06:00;;;;;;;8.90;7.00;;;15.20;99.90;;;;;;5004259;28;20045;-45
2022/08/09 02:08:28;;;;;;;11.95;6.63;;;15.20;99.90;;;;;;4995201;28;20049;-45
2022/08/09 02:10:57;;;;;;;8.65;6.78;;;15.10;99.90;;;;;;5011685;28;20038;-43
2022/08/09 02:13:25;;;;;;;8.85;6.85;;;15.20;99.90;;;;;;4993063;28;20516;-45
2022/08/09 02:15:54;;;;;;;8.85;6.95;;;15.10;99.90;;;;;;5011348;28;20042;-44
2022/08/09 02:18:26;;;;;;;8.73;7.65;;;15.00;99.90;;;;;;5005602;28;20490;-44
2022/08/09 02:20:57;;;;;;;11.00;7.53;;;15.10;99.90;;;;;;4976765;28;20057;-43
2022/08/09 02:23:37;;;;;;;9.07;7.53;;;15.10;99.90;;;;;;5012630;28;20092;-43
2022/08/09 02:26:04;;;;;;;11.77;7.78;;;15.00;99.90;;;;;;5011936;28;20033;-47
2022/08/09 02:28:39;;;;;;;8.38;7.22;;;15.00;99.90;;;;;;5010518;28;20041;-44
2022/08/09 02:31:26;;;;;;;9.75;8.02;;;15.00;99.90;;;;;;5004129;28;20041;-44
2022/08/09 02:33:54;;;;;;;9.75;7.90;;;15.00;99.90;;;;;;5008155;28;20042;-45
2022/08/09 02:36:28;;;;;;;12.05;8.05;;;15.00;99.90;;;;;;5000757;28;20109;-43
2022/08/09 02:38:57;;;;;;;10.93;7.80;;;14.90;99.90;;;;;;4979270;28;20513;-44
2022/08/09 02:41:28;;;;;;;9.15;7.20;;;14.90;99.90;;;;;;5010744;28;20057;-45
2022/08/09 02:44:02;;;;;;;9.63;8.02;;;14.90;99.90;;;;;;4999427;28;20034;-43
2022/08/09 02:46:29;;;;;;;9.45;7.65;;;14.90;99.90;;;;;;5011017;28;20092;-45
2022/08/09 02:49:02;;;;;;;9.73;7.50;;;14.90;99.90;;;;;;5011587;28;20088;-43
2022/08/09 02:51:32;;;;;;;10.82;8.35;;;14.90;99.90;;;;;;5011773;28;20045;-43
2022/08/09 02:54:01;;;;;;;11.18;8.77;;;14.80;99.90;;;;;;5011089;28;20052;-42
2022/08/09 02:56:29;;;;;;;9.60;7.80;;;14.90;99.90;;;;;;5010206;28;20080;-45
2022/08/09 02:58:55;;;;;;;11.02;8.30;;;14.80;99.90;;;;;;5000387;28;20150;-46
2022/08/09 03:01:21;;;;;;;9.43;8.10;;;14.80;99.90;;;;;;5010128;28;20037;-47
2022/08/09 03:03:48;;;;;;;11.98;8.30;;;14.70;99.90;;;;;;5002175;28;20046;-46
2022/08/09 03:06:16;;;;;;;9.23;7.75;;;14.80;99.90;;;;;;4998951;28;20080;-44
2022/08/09 03:08:46;;;;;;;10.43;8.40;;;14.80;99.90;;;;;;5011817;28;20034;-43
2022/08/09 03:11:17;;;;;;;10.30;7.75;;;14.80;99.90;;;;;;4996889;28;20030;-42
2022/08/09 03:13:45;;;;;;;11.52;8.50;;;14.80;99.90;;;;;;4993707;28;20034;-45
2022/08/09 03:16:13;;;;;;;11.40;7.97;;;14.70;99.90;;;;;;4987073;28;20050;-43
2022/08/09 03:18:40;;;;;;;9.07;7.97;;;14.70;99.90;;;;;;5010289;28;20046;-46
2022/08/09 03:21:07;;;;;;;8.85;7.60;;;14.70;99.90;;;;;;5010966;28;20058;-45
2022/08/09 03:23:33;;;;;;;11.27;8.80;;;14.70;99.90;;;;;;5005613;28;20085;-48
2022/08/09 03:26:00;;;;;;;12.15;8.80;;;14.60;99.90;;;;;;4999511;28;20604;-45
2022/08/09 03:28:27;;;;;;;12.40;9.50;;;14.50;99.90;;;;;;5011403;28;20482;-45
2022/08/09 03:30:54;;;;;;;12.38;9.38;;;14.60;99.90;;;;;;5010499;28;20481;-45
2022/08/09 03:33:21;;;;;;;11.48;9.27;;;14.60;99.90;;;;;;4991808;28;20158;-46
2022/08/09 03:35:51;;;;;;;9.20;8.18;;;14.70;99.90;;;;;;4991471;28;20050;-46
2022/08/09 03:38:16;;;;;;;17.17;8.95;;;14.60;99.90;;;;;;4997181;28;20371;-42
2022/08/09 03:40:42;;;;;;;9.63;7.80;;;14.60;99.90;;;;;;4974043;28;20054;-44
2022/08/09 03:43:08;;;;;;;12.88;7.65;;;14.50;99.90;;;;;;4992350;28;20057;-45
2022/08/09 03:45:35;;;;;;;9.75;7.68;;;14.60;99.90;;;;;;5007444;28;20088;-45
2022/08/09 03:48:01;;;;;;;9.95;7.20;;;14.60;99.90;;;;;;4978763;28;20046;-44
2022/08/09 03:50:28;;;;;;;9.70;7.60;;;14.60;99.90;;;;;;4991202;28;20045;-46
2022/08/09 03:52:56;;;;;;;9.20;7.28;;;14.50;99.90;;;;;;5004876;28;20100;-45
2022/08/09 03:55:22;;;;;;;11.07;7.40;;;14.40;99.90;;;;;;4991378;28;20957;-45
2022/08/09 03:57:49;;;;;;;9.95;7.53;;;14.40;99.90;;;;;;4996914;28;20478;-42
2022/08/09 04:00:16;;;;;;;10.40;7.35;;;14.40;99.90;;;;;;4991333;28;20085;-46
2022/08/09 04:02:42;;;;;;;12.32;7.57;;;14.20;99.90;;;;;;4991076;28;20070;-44
2022/08/09 04:05:09;;;;;;;10.25;7.78;;;14.30;99.90;;;;;;5000255;28;20037;-42
2022/08/09 04:07:35;;;;;;;10.45;7.78;;;14.40;99.90;;;;;;4992964;28;20046;-48
2022/08/09 04:10:02;;;;;;;10.73;8.60;;;14.30;99.90;;;;;;4993988;28;20482;-46
2022/08/09 04:12:42;;;;;;;12.20;8.35;;;14.30;99.90;;;;;;5013068;28;20492;-43
2022/08/09 04:15:08;;;;;;;11.85;8.13;;;14.40;99.90;;;;;;5014834;28;20029;-44
2022/08/09 04:17:34;;;;;;;11.30;8.35;;;14.40;99.90;;;;;;5000895;28;20042;-45
2022/08/09 04:20:00;;;;;;;12.10;8.07;;;14.30;99.90;;;;;;4994799;28;20150;-43
2022/08/09 04:22:25;;;;;;;10.45;7.88;;;14.30;99.90;;;;;;4995117;28;20058;-44
2022/08/09 04:24:51;;;;;;;9.75;8.07;;;14.40;99.90;;;;;;4995370;28;20045;-43
2022/08/09 04:27:17;;;;;;;10.55;8.05;;;14.40;99.90;;;;;;4995764;28;20081;-47
2022/08/09 04:29:43;;;;;;;10.18;7.70;;;14.20;99.90;;;;;;5014527;28;20080;-44
2022/08/09 04:32:08;;;;;;;9.18;8.07;;;14.40;99.90;;;;;;4997379;28;20111;-44
2022/08/09 04:34:34;;;;;;;9.50;7.88;;;14.20;99.90;;;;;;4994849;28;20473;-44
2022/08/09 04:37:00;;;;;;;9.93;7.85;;;14.30;99.90;;;;;;4994567;28;20049;-47
2022/08/09 04:39:27;;;;;;;10.10;8.52;;;14.20;99.90;;;;;;4995077;28;20084;-42
2022/08/09 04:41:53;;;;;;;10.35;7.75;;;14.30;99.90;;;;;;5006280;28;20042;-43
2022/08/09 04:44:18;;;;;;;11.65;7.70;;;14.40;99.90;;;;;;5011526;28;20571;-45
2022/08/09 04:46:44;;;;;;;10.70;8.00;;;14.40;99.90;;;;;;5012730;28;20065;-44
2022/08/09 04:49:10;;;;;;;10.20;7.63;;;14.30;99.90;;;;;;5014292;28;20041;-44
2022/08/09 04:51:36;;;;;;;10.90;8.10;;;14.50;99.90;;;;;;5014265;28;20029;-43
2022/08/09 04:54:02;;;;;;;9.25;6.88;;;14.30;99.90;;;;;;5009745;28;20085;-43
2022/08/09 04:56:29;;;;;;;10.38;8.15;;;14.50;99.90;;;;;;4995062;28;20390;-44
2022/08/09 04:58:55;;;;;;;10.80;7.50;;;14.40;99.90;;;;;;5005529;28;20046;-44
2022/08/09 05:01:21;;;;;;;10.68;7.93;;;14.50;99.90;;;;;;5007991;28;20420;-43
2022/08/09 05:03:47;;;;;;;9.60;6.85;;;14.60;99.90;;;;;;5006189;28;20056;-44
2022/08/09 05:06:14;;;;;;;12.30;7.93;;;14.50;99.90;;;;;;4999740;28;20042;-42
2022/08/09 05:08:40;;;;;;;13.07;7.32;;;14.50;99.90;;;;;;5009026;28;20045;-45
2022/08/09 05:11:06;;;;;;;8.95;6.95;;;14.60;99.90;;;;;;5013857;28;20038;-46
2022/08/09 05:13:32;;;;;;;12.05;7.60;;;14.60;99.90;;;;;;5013945;28;20034;-43
2022/08/09 05:15:58;;;;;;;8.65;6.70;;;14.70;99.90;;;;;;5011047;28;20400;-42
2022/08/09 05:18:28;;;;;;;10.50;6.80;;;14.60;99.90;;;;;;5012264;28;20496;-45
2022/08/09 05:20:55;;;;;;;10.57;7.38;;;14.70;99.90;;;;;;5012477;28;20116;-44
2022/08/09 05:23:21;;;;;;;9.10;6.95;;;14.80;99.90;;;;;;5004834;28;20049;-47
2022/08/09 05:25:47;;;;;;;8.80;6.30;;;14.80;99.90;;;;;;5002555;28;20057;-43
2022/08/09 05:28:13;;;;;;;9.73;6.15;;;14.80;99.90;;;;;;5002174;28;20056;-43
2022/08/09 05:30:38;;;;;;;9.10;5.97;;;14.90;99.90;;;;;;5005473;28;20557;-45
2022/08/09 05:33:04;;;;;;;10.38;6.38;;;15.00;99.90;;;;;;4995683;28;20398;-43
2022/08/09 05:35:29;;;;;;;8.93;6.55;;;15.10;99.90;;;;;;4993560;28;20042;-43
2022/08/09 05:37:56;;;;;;;8.32;5.90;;;15.00;99.90;;;;;;5005438;28;20041;-41
2022/08/09 05:40:22;;;;;;;9.38;6.20;;;15.20;99.90;;;;;;5008963;28;20042;-46
2022/08/09 05:42:48;;;;;;;9.20;6.30;;;15.30;99.90;;;;;;5013132;28;20034;-47
2022/08/09 05:45:14;;;;;;;9.48;6.13;;;15.40;99.90;;;;;;5002275;28;20041;-43
2022/08/09 05:47:41;;;;;;;7.30;5.97;;;15.50;99.90;;;;;;4993721;28;20030;-43
2022/08/09 05:50:08;;;;;;;8.70;6.03;;;15.40;99.90;;;;;;5013357;28;20073;-45
2022/08/09 05:52:34;;;;;;;9.40;5.85;;;15.40;99.90;;;;;;5012950;28;20037;-44
2022/08/09 05:55:00;;;;;;;9.63;6.43;;;15.40;99.90;;;;;;5003879;28;20042;-42
2022/08/09 05:57:25;;;;;;;9.65;6.65;;;15.40;99.90;;;;;;4993379;28;20091;-46
2022/08/09 05:59:51;;;;;;;9.80;6.63;;;15.50;99.90;;;;;;5005855;28;20466;-45
2022/08/09 06:02:17;;;;;;;8.10;5.95;;;15.60;99.90;;;;;;4995118;28;20038;-45
2022/08/09 06:04:43;;;;;;;9.10;6.65;;;15.60;99.90;;;;;;5003251;28;20049;-45
2022/08/09 06:07:09;;;;;;;8.07;6.28;;;15.50;99.90;;;;;;5008697;28;20049;-42
2022/08/09 06:09:34;;;;;;;9.80;6.35;;;15.60;99.90;;;;;;4994078;28;20382;-45
2022/08/09 06:12:00;;;;;;;8.80;6.45;;;15.70;99.90;;;;;;5012398;28;20060;-44
2022/08/09 06:14:26;;;;;;;7.95;6.10;;;15.80;99.90;;;;;;5012622;28;20038;-45
2022/08/09 06:16:51;;;;;;;8.73;6.03;;;15.70;99.90;;;;;;5012332;28;20044;-45
2022/08/09 06:19:17;;;;;;;9.15;6.00;;;15.80;99.90;;;;;;5004762;28;20402;-47
2022/08/09 06:21:43;;;;;;;9.60;6.47;;;15.80;99.90;;;;;;4994965;28;20445;-46
2022/08/09 06:24:09;;;;;;;10.05;6.80;;;15.90;99.90;;;;;;4992794;28;20108;-45
2022/08/09 06:26:37;;;;;;;7.40;5.38;;;16.00;99.90;;;;;;5010517;28;20481;-43
2022/08/09 06:29:03;;;;;;;9.10;5.80;;;16.00;99.90;;;;;;5006436;28;20578;-49
2022/08/09 06:31:29;;;;;;;9.48;5.93;;;16.10;99.90;;;;;;5011896;28;20069;-45
2022/08/09 06:33:55;;;;;;;9.55;6.15;;;16.20;99.90;;;;;;5010439;28;20378;-44
2022/08/09 06:36:20;;;;;;;8.38;5.88;;;16.10;99.90;;;;;;4994126;28;20034;-47
2022/08/09 06:38:46;;;;;;;9.82;6.13;;;16.20;99.90;;;;;;4992593;28;20690;-46
2022/08/09 06:41:12;;;;;;;7.90;5.63;;;16.20;99.90;;;;;;4992333;28;20041;-45
2022/08/09 06:43:37;;;;;;;9.02;6.15;;;16.40;99.90;;;;;;5000658;28;20046;-45
2022/08/09 06:46:03;;;;;;;8.65;6.40;;;16.40;99.90;;;;;;4992282;28;20042;-47
2022/08/09 06:48:29;;;;;;;7.25;5.45;;;16.50;99.90;;;;;;5011679;28;20044;-47
2022/08/09 06:50:54;;;;;;;8.80;5.78;;;16.50;99.90;;;;;;5012028;28;20038;-44
2022/08/09 06:53:20;;;;;;;9.70;6.30;;;16.70;99.90;;;;;;4992717;28;20710;-43
2022/08/09 06:55:45;;;;;;;8.65;6.15;;;16.70;99.90;;;;;;4992368;28;20042;-44
2022/08/09 06:58:11;;;;;;;8.25;5.97;;;16.80;99.90;;;;;;4992178;28;20089;-47
2022/08/09 07:00:37;;;;;;;8.38;5.38;;;16.70;99.90;;;;;;5004196;28;20065;-46
2022/08/09 07:03:03;;;;;;;7.25;5.45;;;16.80;99.90;;;;;;5011204;28;20072;-43
2022/08/09 07:05:29;;;;;;;8.27;5.80;;;17.00;99.90;;;;;;5011500;28;20045;-46
2022/08/09 07:07:54;;;;;;;8.88;5.13;;;17.10;99.90;;;;;;4994141;28;20118;-48
2022/08/09 07:10:22;;;;;;;6.90;5.20;;;17.20;99.90;;;;;;5000459;28;20038;-46
2022/08/09 07:12:48;;;;;;;8.23;5.38;;;17.20;99.90;;;;;;4996763;28;20050;-46
2022/08/09 07:15:14;;;;;;;7.40;5.22;;;17.30;99.90;;;;;;5008539;28;20124;-46
2022/08/09 07:17:40;;;;;;;8.02;4.88;;;17.20;99.90;;;;;;5000506;28;20114;-42
2022/08/09 07:20:07;;;;;;;6.88;4.82;;;17.30;99.90;;;;;;5010914;28;20114;-44
2022/08/09 07:22:33;;;;;;;8.13;4.88;;;17.40;99.90;;;;;;5010001;28;20545;-46
2022/08/09 07:24:59;;;;;;;8.07;4.60;;;17.40;99.90;;;;;;5011558;28;20124;-45
2022/08/09 07:27:26;;;;;;;8.77;4.75;;;17.50;99.90;;;;;;5011504;28;20493;-45
2022/08/09 07:29:52;;;;;;;6.05;3.90;;;17.50;99.90;;;;;;4993942;28;20038;-45
2022/08/09 07:32:18;;;;;;;7.38;4.05;;;17.60;99.90;;;;;;4999540;28;20030;-45
2022/08/09 07:34:43;;;;;;;7.32;4.03;;;17.70;99.90;;;;;;4990513;28;20129;-47
2022/08/09 07:37:10;;;;;;;5.65;3.63;;;17.70;99.90;;;;;;5010974;28;20049;-45
2022/08/09 07:39:35;;;;;;;6.45;3.70;;;17.70;99.90;;;;;;4996590;28;20509;-45
2022/08/09 07:42:01;;;;;;;6.03;3.42;;;17.80;99.90;;;;;;4991651;28;20046;-46
2022/08/09 07:44:27;;;;;;;4.88;2.95;;;17.80;99.90;;;;;;5009592;28;20030;-42
2022/08/09 07:46:52;;;;;;;4.25;2.90;;;17.90;99.90;;;;;;5011157;28;20038;-47
2022/08/09 07:49:18;;;;;;;5.93;2.42;;;18.00;99.90;;;;;;5010958;28;20525;-44
2022/08/09 07:51:44;;;;;;;4.50;2.08;;;18.10;99.90;;;;;;5010818;28;20049;-47
2022/08/09 07:54:10;;;;;;;5.95;2.75;;;18.20;99.90;;;;;;5011006;28;20503;-48
2022/08/09 07:56:36;;;;;;;4.00;2.22;;;18.20;99.90;;;;;;5010959;28;20061;-47
2022/08/09 07:59:02;;;;;;;5.22;2.38;;;18.30;99.90;;;;;;5000111;28;20040;-46
2022/08/09 08:01:28;;;;;;;5.57;2.50;;;18.40;99.90;;;;;;5008870;28;20470;-45
2022/08/09 08:03:53;;;;;;;5.32;2.05;;;18.40;99.90;;;;;;5010538;28;20048;-48
2022/08/09 08:06:19;;;;;;;3.35;1.42;;;18.40;99.90;;;;;;5006932;28;20045;-45
2022/08/09 08:08:45;;;;;;;4.53;1.60;;;18.40;99.90;;;;;;5008166;28;20034;-44
2022/08/09 08:11:11;;;;;;;5.50;1.63;;;18.50;99.90;;;;;;5007910;28;20038;-48
2022/08/09 08:13:36;;;;;;;3.30;1.45;;;18.60;99.90;;;;;;5007134;28;20038;-45
2022/08/09 08:16:02;;;;;;;3.85;1.58;;;18.70;99.90;;;;;;5008146;28;20512;-46
2022/08/09 08:18:28;;;;;;;4.28;1.90;;;18.80;99.90;;;;;;5005926;28;20042;-47
2022/08/09 08:20:53;;;;;;;5.70;2.03;;;18.80;99.90;;;;;;5005261;28;20053;-46
2022/08/09 08:23:19;;;;;;;3.58;1.70;;;18.80;99.90;;;;;;5005055;28;20057;-47
2022/08/09 08:25:46;;;;;;;3.10;1.67;;;18.90;99.90;;;;;;5005609;28;20042;-46
2022/08/09 08:28:13;;;;;;;3.85;1.45;;;18.90;99.90;;;;;;5006537;28;20042;-48
2022/08/09 08:30:39;;;;;;;5.78;1.98;;;19.00;99.90;;;;;;5008717;28;20117;-47
2022/08/09 08:33:04;;;;;;;2.97;1.50;;;19.20;99.90;;;;;;5005431;28;20444;-45
2022/08/09 08:35:30;;;;;;;3.00;1.70;;;19.20;99.90;;;;;;5000510;28;20429;-44
2022/08/09 08:37:56;;;;;;;4.40;1.98;;;19.20;99.90;;;;;;5002889;28;20190;-44
2022/08/09 08:40:21;;;;;;;5.57;1.55;;;19.30;99.90;;;;;;5004520;28;20034;-46
2022/08/09 08:42:47;;;;;;;4.60;1.50;;;19.30;99.90;;;;;;5000829;28;20049;-44
2022/08/09 08:45:15;;;;;;;5.93;1.80;;;19.30;99.90;;;;;;5000076;28;20489;-44
2022/08/09 08:47:44;;;;;;;3.42;1.27;;;19.40;99.90;;;;;;5001546;28;20049;-44
2022/08/09 08:50:13;;;;;;;2.45;1.10;;;19.40;99.90;;;;;;4998838;28;20078;-45
2022/08/09 08:52:40;;;;;;;2.35;1.13;;;19.50;99.90;;;;;;4994867;28;20535;-46
2022/08/09 08:55:06;;;;;;;3.47;1.27;;;19.60;99.90;;;;;;4996923;28;20092;-48
2022/08/09 08:57:32;;;;;;;2.67;1.20;;;19.60;99.90;;;;;;5006024;28;20044;-43
2022/08/09 08:59:58;;;;;;;2.58;0.95;;;19.70;99.90;;;;;;5009421;28;20092;-44
2022/08/09 09:02:28;;;;;;;4.35;1.30;;;19.90;99.90;;;;;;5008838;28;20041;-44
2022/08/09 09:04:59;;;;;;;2.67;1.10;;;19.90;99.90;;;;;;5008801;28;20042;-46
2022/08/09 09:07:27;;;;;;;2.10;1.23;;;20.10;99.90;;;;;;5007113;28;20092;-46
2022/08/09 09:09:54;;;;;;;3.20;1.10;;;20.10;99.90;;;;;;5008446;28;20551;-48
2022/08/09 09:12:26;;;;;;;3.28;0.90;;;20.20;99.90;;;;;;5009177;28;20038;-44
2022/08/09 09:14:52;;;;;;;2.15;1.02;;;20.30;99.90;;;;;;5010595;28;20049;-44
2022/08/09 09:17:18;;;;;;;2.95;1.13;;;20.50;99.90;;;;;;5006071;28;20048;-44
2022/08/09 09:19:44;;;;;;;2.75;1.00;;;20.50;99.90;;;;;;4986945;28;20057;-48
2022/08/09 09:22:16;;;;;;;1.50;0.75;;;20.60;99.90;;;;;;5004832;28;20121;-46
2022/08/09 09:24:41;;;;;;;2.90;0.80;;;20.50;99.90;;;;;;5006034;28;20096;-48
2022/08/09 09:27:08;;;;;;;2.10;0.90;;;20.60;99.90;;;;;;4983029;28;20449;-48
2022/08/09 09:29:39;;;;;;;4.70;0.88;;;20.50;99.90;;;;;;5008735;28;20046;-45
2022/08/09 09:32:06;;;;;;;1.55;0.77;;;20.70;99.90;;;;;;5009122;28;20073;-46
2022/08/09 09:34:32;;;;;;;3.30;1.17;;;21.00;99.90;;;;;;5006434;28;20077;-45
2022/08/09 09:36:59;;;;;;;2.55;1.33;;;21.20;99.90;;;;;;5008427;28;20038;-44
2022/08/09 09:39:28;;;;;;;2.00;0.73;;;21.50;99.90;;;;;;5009762;28;20100;-45
2022/08/09 09:41:55;;;;;;;4.22;1.10;;;21.80;99.90;;;;;;5008363;28;20397;-45
2022/08/09 09:44:32;;;;;;;2.72;0.90;;;21.60;99.90;;;;;;5007829;28;20111;-47
2022/08/09 09:47:10;;;;;;;2.65;0.95;;;21.70;99.90;;;;;;5004763;28;20038;-44
2022/08/09 09:49:39;;;;;;;2.30;0.90;;;21.60;99.90;;;;;;5007272;28;20037;-46
2022/08/09 09:52:07;;;;;;;2.25;0.90;;;21.40;99.90;;;;;;5008611;28;20096;-45
2022/08/09 09:54:39;;;;;;;1.58;0.80;;;21.70;99.90;;;;;;5006825;28;20104;-48
2022/08/09 09:57:22;;;;;;;2.78;0.80;;;21.90;99.90;;;;;;5007469;28;20060;-45
2022/08/09 09:59:53;;;;;;;1.25;0.60;;;22.00;99.90;;;;;;5009055;28;20401;-44
2022/08/09 10:02:19;;;;;;;2.88;0.80;;;22.20;99.90;;;;;;5005507;28;20041;-46
2022/08/09 10:05:02;;;;;;;3.13;0.77;;;22.20;99.90;;;;;;5008137;28;20034;-44
2022/08/09 10:07:28;;;;;;;1.50;0.60;;;22.30;99.90;;;;;;5004894;28;20084;-45
2022/08/09 10:09:57;;;;;;;2.05;0.77;;;22.00;99.90;;;;;;5008242;28;20045;-44
2022/08/09 10:12:29;;;;;;;2.95;0.80;;;21.80;99.90;;;;;;5004088;28;20030;-47
2022/08/09 10:15:14;;;;;;;2.33;0.93;;;21.70;99.90;;;;;;5008282;28;20552;-46
2022/08/09 10:17:42;;;;;;;2.50;0.95;;;22.10;99.90;;;;;;5006511;28;20083;-45
2022/08/09 10:20:18;;;;;;;7.68;0.70;;;22.50;99.90;;;;;;5007639;28;20073;-44
2022/08/09 10:22:45;;;;;;;1.67;0.60;;;22.10;99.90;;;;;;5009827;28;20053;-44
2022/08/09 10:25:11;;;;;;;1.70;0.70;;;22.40;99.90;;;;;;5010214;28;20066;-46
2022/08/09 10:27:38;;;;;;;2.20;0.70;;;22.60;99.90;;;;;;5009295;28;20077;-47
2022/08/09 10:30:05;;;;;;;2.25;0.80;;;22.70;99.90;;;;;;5010042;28;20128;-48
2022/08/09 10:32:32;;;;;;;2.92;0.70;;;22.90;99.90;;;;;;5009054;28;20128;-48
2022/08/09 10:34:58;;;;;;;1.70;0.70;;;23.10;99.90;;;;;;5010049;28;20124;-44
2022/08/09 10:37:24;;;;;;;2.28;0.60;;;23.10;99.90;;;;;;5004040;28;20545;-44
2022/08/09 10:39:51;;;;;;;2.10;0.60;;;22.90;99.90;;;;;;5006965;28;20038;-45
2022/08/09 10:42:17;;;;;;;2.72;0.85;;;22.60;99.90;;;;;;5008480;28;20057;-44
2022/08/09 10:44:48;;;;;;;1.58;0.52;;;22.80;99.90;;;;;;5008737;28;20109;-45
2022/08/09 10:47:39;;;;;;;2.05;0.60;;;23.10;99.90;;;;;;5007255;28;20034;-43
2022/08/09 10:50:22;;;;;;;1.02;0.52;;;22.90;99.90;;;;;;5006482;28;20029;-46
2022/08/09 10:53:05;;;;;;;1.15;0.60;;;23.10;99.90;;;;;;5005918;28;20192;-44
2022/08/09 10:55:32;;;;;;;2.10;0.60;;;23.20;99.90;;;;;;5005111;28;20077;-44
2022/08/09 10:57:58;;;;;;;2.05;0.65;;;23.50;99.90;;;;;;5005544;28;20038;-46
2022/08/09 11:00:29;;;;;;;3.20;0.90;;;23.50;99.90;;;;;;5005996;28;20041;-44
2022/08/09 11:02:56;;;;;;;1.73;0.57;;;23.60;99.90;;;;;;5005189;28;20042;-44
2022/08/09 11:05:23;;;;;;;3.10;0.65;;;23.80;99.90;;;;;;5003531;28;20310;-47
2022/08/09 11:07:49;;;;;;;1.25;0.50;;;23.70;99.90;;;;;;5005339;28;20046;-45
2022/08/09 11:10:41;;;;;;;2.28;0.63;;;23.80;99.90;;;;;;5005045;28;20029;-46
2022/08/09 11:13:16;;;;;;;1.88;0.40;;;23.90;99.90;;;;;;4994677;28;20050;-44
2022/08/09 11:15:43;;;;;;;0.98;0.40;;;24.10;99.40;;;;;;5007051;28;20049;-44
2022/08/09 11:18:11;;;;;;;1.15;0.43;;;24.20;99.10;;;;;;5003597;28;20099;-45
2022/08/09 11:20:44;;;;;;;1.13;0.40;;;24.40;99.90;;;;;;5001990;28;20058;-48
2022/08/09 11:23:12;;;;;;;0.70;0.40;;;24.40;98.90;;;;;;5004189;28;20050;-46
2022/08/09 11:25:40;;;;;;;1.35;0.40;;;24.60;99.90;;;;;;5003294;28;20072;-44
2022/08/09 11:28:30;;;;;;;0.70;0.50;;;24.80;98.70;;;;;;5003555;28;20038;-45
2022/08/09 11:30:55;;;;;;;2.28;0.40;;;24.70;98.40;;;;;;4986582;28;20049;-45
2022/08/09 11:33:35;;;;;;;1.52;0.55;;;24.70;99.80;;;;;;5004808;28;20045;-45
2022/08/09 11:36:00;;;;;;;2.53;0.30;;;24.70;99.40;;;;;;4998289;28;20072;-46
2022/08/09 11:38:32;;;;;;;0.90;0.30;;;24.90;98.90;;;;;;4997102;28;20462;-45
2022/08/09 11:41:10;;;;;;;0.73;0.40;;;25.00;98.10;;;;;;5004562;28;20421;-45
2022/08/09 11:43:45;;;;;;;1.52;0.40;;;25.10;97.70;;;;;;5003741;28;20560;-44
2022/08/09 11:46:11;;;;;;;1.48;0.43;;;25.00;97.80;;;;;;5004226;28;20485;-44
2022/08/09 11:48:52;;;;;;;1.23;0.43;;;25.40;97.80;;;;;;5004975;28;20037;-45
2022/08/09 11:51:21;;;;;;;0.65;0.32;;;25.50;97.40;;;;;;5001560;28;20125;-45
2022/08/09 11:53:48;;;;;;;0.98;0.40;;;25.50;97.30;;;;;;5005487;28;20050;-46
2022/08/09 11:56:13;;;;;;;1.20;0.47;;;25.70;97.20;;;;;;5003609;28;20050;-45
2022/08/09 11:58:52;;;;;;;1.15;0.40;;;25.60;97.10;;;;;;5005521;28;20045;-46
2022/08/09 12:01:31;;;;;;;1.00;0.50;;;25.60;95.50;;;;;;5005514;28;20046;-46
2022/08/09 12:04:06;;;;;;;0.93;0.32;;;25.60;96.40;;;;;;5005998;28;20042;-46
2022/08/09 12:06:32;;;;;;;1.58;0.50;;;25.60;95.90;;;;;;5006766;28;20385;-44
2022/08/09 12:08:59;;;;;;;1.98;0.50;;;25.40;96.50;;;;;;5006820;28;20042;-44
2022/08/09 12:11:26;;;;;;;1.17;0.45;;;25.60;96.60;;;;;;5006572;28;20038;-46
2022/08/09 12:13:57;;;;;;;2.47;0.40;;;25.80;96.70;;;;;;5007165;28;20041;-44
2022/08/09 12:16:31;;;;;;;1.05;0.40;;;26.00;96.00;;;;;;5004957;28;20034;-47
2022/08/09 12:18:58;;;;;;;1.65;0.60;;;26.30;96.40;;;;;;5006345;28;20096;-45
2022/08/09 12:21:39;;;;;;;0.85;0.40;;;26.30;95.70;;;;;;5005822;28;20054;-45
2022/08/09 12:24:08;;;;;;;0.98;0.40;;;26.60;95.80;;;;;;5006826;28;20121;-46
2022/08/09 12:26:46;;;;;;;0.95;0.45;;;26.60;95.30;;;;;;5005295;28;20129;-45
2022/08/09 12:29:20;;;;;;;1.08;0.40;;;26.90;95.30;;;;;;5002662;28;20046;-45
2022/08/09 12:31:48;;;;;;;0.55;0.30;;;27.10;94.60;;;;;;5005938;28;20048;-44
2022/08/09 12:34:15;;;;;;;3.10;0.40;;;27.00;94.40;;;;;;5009798;28;20042;-46
2022/08/09 12:36:55;;;;;;;1.00;0.43;;;27.10;94.30;;;;;;5010091;28;20091;-44
2022/08/09 12:39:21;;;;;;;0.85;0.30;;;27.50;95.20;;;;;;5008962;28;20042;-44
2022/08/09 12:41:47;;;;;;;1.60;0.50;;;27.60;94.40;;;;;;5011034;28;20048;-46
2022/08/09 12:44:13;;;;;;;0.52;0.40;;;27.30;93.40;;;;;;5010540;28;20049;-45
2022/08/09 12:46:43;;;;;;;1.02;0.30;;;27.40;93.50;;;;;;5008297;28;20108;-44
2022/08/09 12:49:10;;;;;;;0.57;0.35;;;27.40;93.30;;;;;;4998686;28;20109;-48
2022/08/09 12:51:36;;;;;;;0.98;0.20;;;27.30;93.90;;;;;;4996854;28;20545;-46